ADDS METAR Data INFO
IDs: Format: Raw Decoded Include TAF

Data at: 1811 UTC 18 Feb 2018

KU68 181755Z AUTO 30009KT 3/4SM -SN OVC004 M10/M12 A2964 RMK AO2
KU68 181735Z AUTO 27009KT 1/2SM -SN OVC004 M11/M12 A2965 RMK AO2
KU68 181715Z AUTO 29015KT 3/4SM -SN OVC006 M11/M12 A2964 RMK AO2
KU68 181655Z AUTO 28013G20KT 1 1/4SM -SN BKN008 OVC018 M10/M11 A2964 RMK AO2
KU68 181635Z AUTO 20008KT 2 1/2SM -SN SCT012 OVC020 M09/M10 A2962 RMK AO2
KU68 181615Z AUTO 18005KT 1 3/4SM -SN BKN005 OVC012 M10/M10 A2960 RMK AO2
KU68 181555Z AUTO 16005KT 1/2SM -SN OVC007 M10/M10 A2960 RMK AO2
KU68 181535Z AUTO 24008KT 1SM -SN OVC005 M10/M10 A2961 RMK AO2
KU68 181515Z AUTO 21011KT 3/4SM -SN OVC005 M10/M10 A2961 RMK AO2
KU68 181455Z AUTO 16008G11KT 1SM -SN OVC005 M09/M09 A2959 RMK AO2
KU68 181435Z AUTO 11015KT 3/4SM -SN OVC007 M09/M09 A2955 RMK AO2
KU68 181415Z AUTO 14012KT 1 3/4SM -SN OVC007 M09/M10 A2956 RMK AO2
KU68 181355Z AUTO 15009KT 2SM -SN OVC007 M08/M10 A2955 RMK AO2
KU68 181335Z AUTO 25009G19KT 3SM -SN SCT009 BKN015 OVC022 M08/M10 A2954 RMK AO2
KU68 181315Z AUTO 28010G20KT 10SM -SN SCT015 BKN019 OVC033 M06/M08 A2955 RMK AO2
KU68 181255Z AUTO 28011G16KT 10SM BKN019 OVC027 M06/M07 A2953 RMK AO2
KU68 181235Z AUTO 29013G17KT 2 1/2SM -SN SCT012 OVC017 M05/M05 A2951 RMK AO2
KU68 181215Z AUTO 22006KT 2 1/2SM -SN BKN010 BKN018 OVC023 M03/M03 A2951 RMK AO2
KU68 181155Z AUTO 30007KT 3SM -SN SCT010 BKN018 OVC023 M02/M02 A2950 RMK AO2
KU68 181135Z AUTO 04015G20KT 1 3/4SM -SN SCT004 BKN011 OVC017 M02/M02 A2946 RMK AO2
KU68 181115Z AUTO 05009KT 7SM -SN SCT006 BKN016 OVC022 00/00 A2946 RMK AO2
KU68 181055Z AUTO 35005KT 3SM -SN OVC006 00/00 A2946 RMK AO2
KU68 181035Z AUTO 36015G19KT 2 1/2SM -SN BKN008 BKN016 OVC060 01/01 A2946 RMK AO2 VIS 1 3/4V4
KU68 181015Z AUTO 36010G16KT 7SM -SN OVC060 01/00 A2945 RMK AO2
KU68 180955Z AUTO 36011G19KT 334V034 10SM OVC060 01/M01 A2945 RMK AO2
KU68 180935Z AUTO 34014G20KT 10SM -SN OVC060 01/01 A2945 RMK AO2
KU68 180915Z AUTO 32016KT 10SM UP OVC060 01/00 A2945 RMK AO2
KU68 180855Z AUTO 32017KT 10SM SCT048 BKN060 OVC070 01/00 A2944 RMK AO2
KU68 180835Z AUTO 33019G23KT 10SM -SN SCT014 BKN050 OVC070 01/00 A2944 RMK AO2
KU68 180815Z AUTO 33023G34KT 3SM -SN SCT010 BKN031 OVC039 01/00 A2945 RMK AO2
KU68 180755Z AUTO 31023G35KT 10SM SCT040 BKN048 OVC075 00/M04 A2945 RMK AO2
KU68 180735Z AUTO 29004KT 10SM SCT065 BKN075 BKN085 M02/M06 A2939 RMK AO2
KU68 180715Z AUTO 00000KT 10SM SCT080 01/M06 A2940 RMK AO2
KU68 180655Z AUTO 00000KT 10SM SCT065 SCT080 00/M06 A2940 RMK AO2
KU68 180635Z AUTO 19004KT 10SM SCT065 SCT080 01/M06 A2941 RMK AO2
KU68 180615Z AUTO 00000KT 10SM SCT100 SCT120 00/M06 A2941 RMK AO2
KU68 180555Z AUTO 14008KT 10SM CLR 00/M06 A2942 RMK AO2
KU68 180535Z AUTO 15008KT 10SM CLR 00/M06 A2943 RMK AO2
KU68 180515Z AUTO 12005KT 10SM CLR 00/M06 A2945 RMK AO2
KU68 180455Z AUTO 09005KT 10SM CLR 00/M06 A2946 RMK AO2
KU68 180435Z AUTO 13005KT 10SM SCT085 00/M06 A2947 RMK AO2
KU68 180415Z AUTO 13005KT 10SM SCT080 00/M06 A2948 RMK AO2
KU68 180355Z AUTO 14005KT 10SM SCT085 00/M06 A2949 RMK AO2
KU68 180335Z AUTO 08003KT 10SM CLR 00/M07 A2950 RMK AO2
KU68 180315Z AUTO 33003KT 10SM CLR M01/M06 A2951 RMK AO2
KU68 180255Z AUTO 31003KT 10SM CLR M01/M06 A2952 RMK AO2
KU68 180235Z AUTO 30005KT 10SM CLR M02/M06 A2954 RMK AO2
KU68 180215Z AUTO 25005KT 10SM CLR M02/M06 A2955 RMK AO2
KU68 180155Z AUTO 26007KT 10SM CLR M02/M06 A2956 RMK AO2
KU68 180135Z AUTO 21003KT 10SM CLR 00/M07 A2957 RMK AO2
KU68 180115Z AUTO 07005KT 10SM SCT080 SCT120 M01/M07 A2957 RMK AO2
KU68 180055Z AUTO 00000KT 10SM SCT090 SCT120 00/M06 A2960 RMK AO2
KU68 180035Z AUTO 29006KT 10SM SCT090 SCT110 M01/M06 A2962 RMK AO2
KU68 180015Z AUTO 29004KT 10SM SCT090 M01/M06 A2963 RMK AO2
KU68 172355Z AUTO 34004KT 10SM SCT090 M01/M06 A2964 RMK AO2
KU68 172335Z AUTO 21003KT 10SM SCT090 00/M07 A2966 RMK AO2
KU68 172315Z AUTO 00000KT 10SM SCT090 00/M06 A2968 RMK AO2
KU68 172255Z AUTO 00000KT 10SM SCT090 00/M06 A2969 RMK AO2
KU68 172235Z AUTO 00000KT 10SM SCT090 00/M06 A2970 RMK AO2
KU68 172215Z AUTO 18005KT 10SM SCT090 01/M06 A2972 RMK AO2
KU68 172155Z AUTO 00000KT 10SM SCT090 SCT120 01/M06 A2972 RMK AO2
KU68 172135Z AUTO 00000KT 10SM SCT090 SCT120 00/M06 A2973 RMK AO2
KU68 172115Z AUTO 00000KT 10SM SCT120 00/M06 A2974 RMK AO2
KU68 172055Z AUTO 14005KT 10SM CLR 00/M05 A2977 RMK AO2
KU68 172035Z AUTO 14006KT 10SM SCT120 00/M06 A2980 RMK AO2
KU68 172015Z AUTO 16005KT 10SM BKN100 BKN120 01/M06 A2982 RMK AO2
KU68 171955Z AUTO 00000KT 10SM SCT110 00/M06 A2984 RMK AO2
KU68 171935Z AUTO 00000KT 10SM CLR 00/M06 A2985 RMK AO2
KU68 171915Z AUTO 15006KT 10SM CLR M01/M07 A2988 RMK AO2
KU68 171855Z AUTO 15007KT 10SM CLR M01/M07 A2990 RMK AO2
KU68 171835Z AUTO 13008KT 10SM CLR M01/M07 A2991 RMK AO2
KU68 171815Z AUTO 10005KT 10SM CLR M02/M07 A2993 RMK AO2
KU68 171755Z AUTO 08004KT 10SM SCT095 M03/M08 A2994 RMK AO2
KU68 171735Z AUTO 14004KT 10SM BKN095 M03/M07 A2995 RMK AO2
KU68 171715Z AUTO 13004KT 10SM SCT095 BKN120 M02/M06 A2995 RMK AO2
KU68 171655Z AUTO 04003KT 10SM SCT120 M04/M06 A2996 RMK AO2
KU68 171635Z AUTO 07004KT 10SM SCT065 M04/M07 A2997 RMK AO2
KU68 171615Z AUTO 09004KT 10SM SCT060 SCT110 M06/M07 A2997 RMK AO2
KU68 171555Z AUTO 13006KT 10SM BKN110 M06/M07 A2998 RMK AO2
KU68 171535Z AUTO 12005KT 10SM BKN110 M06/M06 A2998 RMK AO2
KU68 171515Z AUTO 00000KT 10SM SCT070 SCT085 OVC110 M05/M05 A2998 RMK AO2
KU68 171455Z AUTO 00000KT 10SM OVC070 M06/M06 A2999 RMK AO2
KU68 171435Z AUTO 08004KT 10SM OVC070 M06/M06 A2998 RMK AO2
KU68 171415Z AUTO 06006KT 10SM SCT045 SCT060 OVC065 M06/M06 A2998 RMK AO2
KU68 171355Z AUTO 02003KT 10SM BKN045 OVC050 M06/M06 A2998 RMK AO2
KU68 171335Z AUTO 02003KT 10SM OVC050 M06/M06 A2998 RMK AO2
KU68 171315Z AUTO 04006KT 10SM OVC060 M06/M06 A2998 RMK AO2
KU68 171255Z AUTO 03004KT 10SM OVC050 M07/M07 A2999 RMK AO2
KU68 171235Z AUTO 08003KT 10SM OVC050 M06/M07 A2999 RMK AO2
KU68 171215Z AUTO 01003KT 10SM BKN065 BKN080 OVC110 M07/M08 A2998 RMK AO2
KU68 171155Z AUTO 04003KT 10SM SCT065 OVC110 M07/M09 A2997 RMK AO2
KU68 171135Z AUTO 00000KT 10SM BKN065 OVC075 M07/M09 A2997 RMK AO2
KU68 171115Z AUTO 28003KT 10SM OVC075 M08/M09 A2997 RMK AO2
KU68 171055Z AUTO 00000KT 10SM BKN075 OVC085 M07/M07 A2996 RMK AO2
KU68 171035Z AUTO 00000KT 10SM OVC075 M06/M06 A2995 RMK AO2
KU68 171015Z AUTO 04004KT 10SM SCT050 BKN060 OVC075 M06/M07 A2995 RMK AO2
KU68 170955Z AUTO 33005KT 10SM OVC060 M05/M07 A2995 RMK AO2
KU68 170935Z AUTO 36004KT 10SM SCT060 BKN070 OVC080 M05/M07 A2994 RMK AO2
KU68 170915Z AUTO 05006KT 10SM SCT027 SCT035 OVC070 M05/M08 A2993 RMK AO2
KU68 170855Z AUTO 00000KT 10SM -SN SCT022 BKN027 OVC035 M05/M09 A2993 RMK AO2
KU68 170835Z AUTO 05005KT 10SM SCT022 OVC030 M05/M10 A2992 RMK AO2
KU68 170815Z AUTO 07003KT 10SM SCT028 BKN032 OVC060 M05/M10 A2992 RMK AO2
KU68 170755Z AUTO 00000KT 10SM SCT044 BKN055 OVC080 M05/M11 A2991 RMK AO2
KU68 170735Z AUTO 15004KT 10SM OVC090 M06/M11 A2990 RMK AO2
KU68 170715Z AUTO 12005KT 10SM SCT037 BKN070 OVC090 M05/M10 A2989 RMK AO2
KU68 170655Z AUTO 10004KT 10SM BKN041 BKN050 OVC075 M05/M10 A2989 RMK AO2
KU68 170635Z AUTO 07003KT 10SM BKN050 BKN065 OVC075 M05/M10 A2989 RMK AO2
KU68 170615Z AUTO 03003KT 10SM SCT055 BKN065 OVC085 M06/M10 A2988 RMK AO2